Time;durP1;ratioP1;P1;durP2;ratioP2;P2;SDS_P1;SDS_P2;PMS_P1;PMS_P2;Temp;Humidity;BMP_temperature;BMP_pressure;BME280_temperature;BME280_humidity;BME280_pressure;Samples;Min_cycle;Max_cycle;Signal;HPM_P1;HPM_P2
2023/07/27 00:02:25;;;;;;;12.77;11.40;;;18.10;99.90;;;;;;5053996;28;20028;-80
2023/07/27 00:04:51;;;;;;;12.75;11.40;;;18.10;99.90;;;;;;5033995;28;20049;-81
2023/07/27 00:07:17;;;;;;;15.52;12.63;;;18.00;99.90;;;;;;5051310;28;20017;-81
2023/07/27 00:09:43;;;;;;;13.40;12.13;;;18.00;99.90;;;;;;5035780;28;20031;-81
2023/07/27 00:12:09;;;;;;;15.27;11.65;;;18.00;99.90;;;;;;5045446;28;20100;-80
2023/07/27 00:14:35;;;;;;;14.65;12.02;;;18.00;99.90;;;;;;5053694;28;20099;-80
2023/07/27 00:17:01;;;;;;;13.52;12.23;;;17.90;99.90;;;;;;5030399;28;20048;-82
2023/07/27 00:19:26;;;;;;;12.57;11.27;;;17.90;99.90;;;;;;5031525;28;20471;-81
2023/07/27 00:21:52;;;;;;;16.17;12.63;;;17.90;99.90;;;;;;5051637;28;20331;-82
2023/07/27 00:24:18;;;;;;;16.02;12.05;;;17.90;99.90;;;;;;5045682;28;20450;-84
2023/07/27 00:26:44;;;;;;;13.75;11.75;;;17.80;99.90;;;;;;5033332;28;20021;-82
2023/07/27 00:29:10;;;;;;;17.58;12.95;;;17.80;99.90;;;;;;5035243;28;20041;-82
2023/07/27 00:31:36;;;;;;;16.58;12.52;;;17.80;99.90;;;;;;5038834;28;20017;-81
2023/07/27 00:34:02;;;;;;;15.13;12.40;;;17.80;99.90;;;;;;5043753;28;20422;-80
2023/07/27 00:36:27;;;;;;;14.65;12.48;;;17.80;99.90;;;;;;5031595;28;20070;-81
2023/07/27 00:38:53;;;;;;;14.80;13.25;;;17.80;99.90;;;;;;5053308;28;20023;-80
2023/07/27 00:41:22;;;;;;;16.30;13.35;;;17.80;99.90;;;;;;5053380;28;20021;-79
2023/07/27 00:43:47;;;;;;;16.67;13.43;;;17.70;99.90;;;;;;5042133;28;20111;-81
2023/07/27 00:46:14;;;;;;;17.65;15.30;;;17.70;99.90;;;;;;5048487;28;20108;-81
2023/07/27 00:48:40;;;;;;;15.50;13.90;;;17.70;99.90;;;;;;5056248;28;20483;-80
2023/07/27 00:51:07;;;;;;;18.83;14.40;;;17.70;99.90;;;;;;5039427;28;20025;-81
2023/07/27 00:53:34;;;;;;;16.13;13.77;;;17.70;99.90;;;;;;5042837;28;20033;-80
2023/07/27 00:56:01;;;;;;;15.27;13.63;;;17.60;99.90;;;;;;5044143;28;20032;-81
2023/07/27 00:58:27;;;;;;;17.35;15.13;;;17.60;99.90;;;;;;5055108;28;20025;-81
2023/07/27 01:00:54;;;;;;;15.23;13.50;;;17.60;99.90;;;;;;5036760;28;20482;-81
2023/07/27 01:03:20;;;;;;;16.45;14.65;;;17.60;99.90;;;;;;5053038;28;20422;-81
2023/07/27 01:05:48;;;;;;;16.33;14.73;;;17.60;99.90;;;;;;5052377;28;20028;-81
2023/07/27 01:08:13;;;;;;;;;;;17.60;99.90;;;;;;5035081;28;20025;-82
2023/07/27 01:10:56;;;;;;;16.88;15.07;;;17.60;99.90;;;;;;5052099;28;20271;-81
2023/07/27 01:13:43;;;;;;;17.42;15.45;;;17.70;99.90;;;;;;5034834;28;20021;-80
2023/07/27 01:16:23;;;;;;;15.63;14.00;;;17.70;99.90;;;;;;5034601;28;20021;-81
2023/07/27 01:19:01;;;;;;;19.23;15.10;;;17.80;99.90;;;;;;5051877;28;20080;-79
2023/07/27 01:21:34;;;;;;;16.35;14.18;;;17.80;99.90;;;;;;5052819;28;20128;-81
2023/07/27 01:24:42;;;;;;;16.35;14.60;;;17.70;99.90;;;;;;5053328;28;20029;-81
2023/07/27 01:27:43;;;;;;;15.52;13.93;;;17.70;99.90;;;;;;5058073;28;20095;-82
2023/07/27 01:30:27;;;;;;;16.42;14.73;;;17.70;99.90;;;;;;5058313;28;20028;-82
2023/07/27 01:33:02;;;;;;;16.02;14.32;;;17.70;99.90;;;;;;5034848;28;20083;-82
2023/07/27 01:35:36;;;;;;;15.48;13.85;;;17.70;99.90;;;;;;5034569;28;20367;-79
2023/07/27 01:38:03;;;;;;;16.45;14.77;;;17.60;99.90;;;;;;5056437;28;20075;-81
2023/07/27 01:40:30;;;;;;;16.27;14.63;;;17.60;99.90;;;;;;5063241;28;20025;-81
2023/07/27 01:42:56;;;;;;;16.55;14.82;;;17.60;99.90;;;;;;5054128;28;20029;-82
2023/07/27 01:45:23;;;;;;;16.80;15.02;;;17.60;99.90;;;;;;5053152;28;20025;-80
2023/07/27 01:47:51;;;;;;;22.48;15.73;;;17.60;99.90;;;;;;5056083;28;20016;-81
2023/07/27 01:50:18;;;;;;;16.17;14.30;;;17.60;99.90;;;;;;5055847;28;20025;-81
2023/07/27 01:52:46;;;;;;;15.35;13.90;;;17.70;99.90;;;;;;5038075;28;20394;-82
2023/07/27 01:55:16;;;;;;;16.63;13.73;;;17.70;99.90;;;;;;5056121;28;20029;-81
2023/07/27 01:57:44;;;;;;;22.15;14.27;;;17.80;99.90;;;;;;5037882;28;20025;-82
2023/07/27 02:00:11;;;;;;;16.23;14.07;;;17.90;99.90;;;;;;5045891;28;20029;-80
2023/07/27 02:02:38;;;;;;;15.55;13.60;;;18.00;99.90;;;;;;5028779;28;20490;-81
2023/07/27 02:05:04;;;;;;;16.50;13.63;;;18.20;99.90;;;;;;5055867;28;20063;-82
2023/07/27 02:07:35;;;;;;;16.70;13.20;;;18.30;99.90;;;;;;5038038;28;20025;-82
2023/07/27 02:10:01;;;;;;;15.90;14.10;;;18.40;99.90;;;;;;5038805;28;20048;-81
2023/07/27 02:12:34;;;;;;;15.63;13.13;;;18.40;99.90;;;;;;5064110;28;20028;-81
2023/07/27 02:15:07;;;;;;;14.50;12.50;;;18.50;99.90;;;;;;5064098;28;20033;-81
2023/07/27 02:17:44;;;;;;;14.85;13.13;;;18.50;99.90;;;;;;5056693;28;20020;-82
2023/07/27 02:20:14;;;;;;;15.30;11.73;;;18.60;99.90;;;;;;5055934;28;20029;-82
2023/07/27 02:22:44;;;;;;;11.70;10.60;;;18.60;99.90;;;;;;5055771;28;20029;-81
2023/07/27 02:25:11;;;;;;;13.48;12.07;;;18.70;99.90;;;;;;5038171;28;20520;-82
2023/07/27 02:27:37;;;;;;;16.88;12.50;;;18.70;99.90;;;;;;5025370;28;20435;-80
2023/07/27 02:30:04;;;;;;;14.43;12.60;;;18.70;99.90;;;;;;5053971;28;20060;-81
2023/07/27 02:32:30;;;;;;;12.77;11.47;;;18.60;99.90;;;;;;5055300;28;20110;-81
2023/07/27 02:34:56;;;;;;;13.83;12.43;;;18.60;99.90;;;;;;5037305;28;20132;-81
2023/07/27 02:37:22;;;;;;;13.93;11.88;;;18.60;99.90;;;;;;5037176;28;20032;-81
2023/07/27 02:39:48;;;;;;;13.70;11.63;;;18.60;99.90;;;;;;5041292;28;20030;-82
2023/07/27 02:42:14;;;;;;;16.02;11.60;;;18.70;99.90;;;;;;5055054;28;20490;-82
2023/07/27 02:44:40;;;;;;;15.40;12.20;;;18.70;99.90;;;;;;5047201;28;20057;-81
2023/07/27 02:47:06;;;;;;;13.65;12.25;;;18.60;99.90;;;;;;5054037;28;20102;-81
2023/07/27 02:49:32;;;;;;;14.38;12.88;;;18.60;99.90;;;;;;5054963;28;20025;-81
2023/07/27 02:51:58;;;;;;;14.57;11.93;;;18.70;99.90;;;;;;5054744;28;20017;-81
2023/07/27 02:54:24;;;;;;;17.20;14.45;;;18.80;99.90;;;;;;5036993;28;20036;-82
2023/07/27 02:56:50;;;;;;;15.70;12.77;;;18.80;99.90;;;;;;5054654;28;20025;-81
2023/07/27 02:59:16;;;;;;;15.05;11.55;;;18.80;99.90;;;;;;5054867;28;20031;-79
2023/07/27 03:01:42;;;;;;;13.82;12.25;;;18.80;99.90;;;;;;5036731;28;20029;-81
2023/07/27 03:04:08;;;;;;;14.45;12.90;;;18.70;99.90;;;;;;5054263;28;20080;-80
2023/07/27 03:06:35;;;;;;;15.52;13.93;;;18.70;99.90;;;;;;5054777;28;20091;-81
2023/07/27 03:09:01;;;;;;;15.40;13.45;;;18.70;99.90;;;;;;5038835;28;20021;-81
2023/07/27 03:11:27;;;;;;;14.45;12.77;;;18.60;99.90;;;;;;5057610;28;20035;-80
2023/07/27 03:13:53;;;;;;;14.32;12.68;;;18.70;99.90;;;;;;5043167;28;20033;-79
2023/07/27 03:16:19;;;;;;;15.98;13.57;;;18.70;99.90;;;;;;5056188;28;20017;-80
2023/07/27 03:18:45;;;;;;;16.10;13.77;;;18.70;99.90;;;;;;5055593;28;20025;-80
2023/07/27 03:21:11;;;;;;;16.60;14.68;;;18.70;99.90;;;;;;5056873;28;20432;-80
2023/07/27 03:23:36;;;;;;;14.52;12.98;;;18.80;99.90;;;;;;5058161;28;20059;-80
2023/07/27 03:26:11;;;;;;;16.27;13.35;;;18.80;99.90;;;;;;5060945;28;20363;-79
2023/07/27 03:28:37;;;;;;;14.98;13.38;;;18.90;99.90;;;;;;5050868;28;20013;-79
2023/07/27 03:31:19;;;;;;;15.40;12.50;;;19.00;99.90;;;;;;5055657;28;20025;-80
2023/07/27 03:33:46;;;;;;;16.33;12.90;;;19.10;99.90;;;;;;5050530;28;20036;-81
2023/07/27 03:36:14;;;;;;;13.85;12.25;;;19.20;99.90;;;;;;5054513;28;20017;-81
2023/07/27 03:38:40;;;;;;;14.45;13.05;;;19.20;99.90;;;;;;5047582;28;20060;-81
2023/07/27 03:41:05;;;;;;;13.93;12.52;;;19.30;99.90;;;;;;5048162;28;20032;-81
2023/07/27 03:43:31;;;;;;;13.60;12.00;;;19.40;99.90;;;;;;5056890;28;20017;-80
2023/07/27 03:45:58;;;;;;;12.85;11.55;;;19.40;99.90;;;;;;5052753;28;20096;-80
2023/07/27 03:48:24;;;;;;;14.32;12.45;;;19.30;99.90;;;;;;5053713;28;20024;-82
2023/07/27 03:50:50;;;;;;;13.93;12.55;;;19.10;99.90;;;;;;5035951;28;20115;-82
2023/07/27 03:53:16;;;;;;;15.57;12.85;;;19.20;99.90;;;;;;5053509;28;20108;-81
2023/07/27 03:55:42;;;;;;;14.70;12.95;;;19.20;99.90;;;;;;5053533;28;20033;-82
2023/07/27 03:58:07;;;;;;;15.65;12.80;;;19.20;99.90;;;;;;5053820;28;20025;-83
2023/07/27 04:00:33;;;;;;;12.20;11.02;;;19.30;99.90;;;;;;5054315;28;20024;-81
2023/07/27 04:02:59;;;;;;;13.25;11.80;;;19.40;99.90;;;;;;5054250;28;20043;-80
2023/07/27 04:05:25;;;;;;;14.15;12.30;;;19.40;99.90;;;;;;5054223;28;20055;-81
2023/07/27 04:07:52;;;;;;;13.15;11.77;;;19.30;99.90;;;;;;5054832;28;20017;-80
2023/07/27 04:10:18;;;;;;;15.43;12.63;;;19.30;99.90;;;;;;5057155;28;20033;-81
2023/07/27 04:12:44;;;;;;;14.10;12.70;;;19.30;99.90;;;;;;5024120;28;20021;-79
2023/07/27 04:15:10;;;;;;;16.98;11.85;;;19.30;99.90;;;;;;5056917;28;20044;-82
2023/07/27 04:17:36;;;;;;;13.50;11.60;;;19.50;99.90;;;;;;5039504;28;20017;-80
2023/07/27 04:20:03;;;;;;;15.52;12.75;;;19.50;99.90;;;;;;5057415;28;20060;-79
2023/07/27 04:22:28;;;;;;;12.95;11.55;;;19.50;99.90;;;;;;5057412;28;20021;-83
2023/07/27 04:24:54;;;;;;;14.85;11.68;;;19.50;99.90;;;;;;5036079;28;20040;-81
2023/07/27 04:27:20;;;;;;;15.02;11.57;;;19.40;99.90;;;;;;5028057;28;20030;-81
2023/07/27 04:29:46;;;;;;;14.38;12.80;;;19.40;99.90;;;;;;5051697;28;20078;-82
2023/07/27 04:32:12;;;;;;;18.40;12.80;;;19.50;99.90;;;;;;5053339;28;20066;-81
2023/07/27 04:34:38;;;;;;;15.63;12.63;;;19.50;99.90;;;;;;5047522;28;20036;-82
2023/07/27 04:37:05;;;;;;;15.02;12.23;;;19.50;99.90;;;;;;5053064;28;20021;-82
2023/07/27 04:39:31;;;;;;;15.07;13.52;;;19.40;99.90;;;;;;5021330;28;20447;-82
2023/07/27 04:41:57;;;;;;;17.60;13.75;;;19.30;99.90;;;;;;5051417;28;20017;-81
2023/07/27 04:44:23;;;;;;;20.40;14.27;;;19.40;99.90;;;;;;5031183;28;20100;-81
2023/07/27 04:46:49;;;;;;;15.23;13.63;;;19.60;99.90;;;;;;5031447;28;20021;-81
2023/07/27 04:49:15;;;;;;;15.55;12.48;;;19.70;99.90;;;;;;5052833;28;20021;-80
2023/07/27 04:51:41;;;;;;;15.95;14.25;;;19.80;99.90;;;;;;5039892;28;20069;-82
2023/07/27 04:54:06;;;;;;;14.88;13.32;;;19.90;99.90;;;;;;5018908;28;20037;-80
2023/07/27 04:56:32;;;;;;;15.50;13.63;;;19.90;99.90;;;;;;5032551;28;20104;-81
2023/07/27 04:58:58;;;;;;;14.88;13.38;;;20.10;99.90;;;;;;5020012;28;20020;-80
2023/07/27 05:01:24;;;;;;;15.10;12.18;;;20.30;99.90;;;;;;5062656;28;20044;-82
2023/07/27 05:03:51;;;;;;;17.48;12.40;;;20.40;99.90;;;;;;5071518;28;20045;-81
2023/07/27 05:06:17;;;;;;;16.25;13.30;;;20.60;99.90;;;;;;5070129;28;20033;-80
2023/07/27 05:08:43;;;;;;;14.85;12.68;;;20.60;99.90;;;;;;5068022;28;20033;-81
2023/07/27 05:11:09;;;;;;;15.43;12.80;;;20.90;99.90;;;;;;5063742;28;20020;-78
2023/07/27 05:13:35;;;;;;;13.75;12.35;;;21.10;99.90;;;;;;5056232;28;20032;-80
2023/07/27 05:16:02;;;;;;;15.55;12.40;;;21.20;99.90;;;;;;5060548;28;20016;-80
2023/07/27 05:18:28;;;;;;;17.05;12.88;;;21.20;99.90;;;;;;5050401;28;20112;-81
2023/07/27 05:20:55;;;;;;;18.35;12.77;;;21.30;99.90;;;;;;5056445;28;20027;-82
2023/07/27 05:23:20;;;;;;;14.17;12.67;;;21.20;99.90;;;;;;5052434;28;20504;-81
2023/07/27 05:25:47;;;;;;;17.33;11.93;;;21.10;99.90;;;;;;5064146;28;20263;-83
2023/07/27 05:28:14;;;;;;;16.17;12.88;;;21.00;99.90;;;;;;5043745;28;20048;-81
2023/07/27 05:30:41;;;;;;;17.17;14.55;;;20.80;99.90;;;;;;5067242;28;20404;-81
2023/07/27 05:33:07;;;;;;;16.67;14.88;;;21.00;99.90;;;;;;5051286;28;20021;-82
2023/07/27 05:35:33;;;;;;;16.38;14.13;;;21.10;99.90;;;;;;5037828;28;20029;-82
2023/07/27 05:37:59;;;;;;;15.63;13.88;;;21.20;99.90;;;;;;5052696;28;20411;-82
2023/07/27 05:40:25;;;;;;;14.80;13.27;;;21.10;99.90;;;;;;5033877;28;20060;-80
2023/07/27 05:42:51;;;;;;;16.73;13.55;;;21.20;99.90;;;;;;5047196;28;20017;-81
2023/07/27 05:45:17;;;;;;;18.92;14.43;;;21.40;99.90;;;;;;5023627;28;20378;-82
2023/07/27 05:47:42;;;;;;;11.77;10.48;;;21.60;99.90;;;;;;5052819;28;20097;-81
2023/07/27 05:50:09;;;;;;;13.82;11.30;;;21.80;99.90;;;;;;5047930;28;20566;-81
2023/07/27 05:52:35;;;;;;;11.43;10.18;;;22.10;99.90;;;;;;5050662;28;20067;-82
2023/07/27 05:55:01;;;;;;;12.00;9.93;;;22.40;99.50;;;;;;5052608;28;20061;-80
2023/07/27 05:57:27;;;;;;;14.35;9.82;;;22.70;99.10;;;;;;5039902;28;20021;-82
2023/07/27 05:59:53;;;;;;;12.88;10.05;;;23.10;97.80;;;;;;5046826;28;20032;-81
2023/07/27 06:02:19;;;;;;;13.52;9.48;;;23.70;96.80;;;;;;5071201;28;20074;-82
2023/07/27 06:04:45;;;;;;;15.07;9.73;;;25.10;94.40;;;;;;5063390;28;20504;-85
2023/07/27 06:07:11;;;;;;;15.67;9.73;;;26.30;91.80;;;;;;5041707;28;20018;-81
2023/07/27 06:09:37;;;;;;;10.93;9.85;;;27.00;89.80;;;;;;5035135;28;20496;-83
2023/07/27 06:12:11;;;;;;;9.50;8.50;;;28.50;83.20;;;;;;5052167;28;20040;-84
2023/07/27 06:14:38;;;;;;;9.40;8.50;;;28.50;83.10;;;;;;5051427;28;20057;-84
2023/07/27 06:17:04;;;;;;;10.60;8.23;;;32.10;77.60;;;;;;5053019;28;20021;-85
2023/07/27 06:19:30;;;;;;;11.48;8.73;;;32.40;68.30;;;;;;5053435;28;20390;-84
2023/07/27 06:21:56;;;;;;;11.33;9.30;;;33.30;63.80;;;;;;5056259;28;20025;-83
2023/07/27 06:24:22;;;;;;;10.73;8.07;;;34.10;75.20;;;;;;5056460;28;20541;-84
2023/07/27 06:26:47;;;;;;;17.37;9.30;;;34.10;59.30;;;;;;5058277;28;20417;-84
2023/07/27 06:29:13;;;;;;;10.83;9.20;;;34.80;57.90;;;;;;5040607;28;20028;-83
2023/07/27 06:31:39;;;;;;;10.13;8.37;;;35.60;55.70;;;;;;5055159;28;20028;-84
2023/07/27 06:34:05;;;;;;;7.68;5.60;;;36.00;54.30;;;;;;5039172;28;20098;-84
2023/07/27 06:36:31;;;;;;;7.30;6.60;;;36.20;50.80;;;;;;5056791;28;20033;-84
2023/07/27 06:38:57;;;;;;;8.88;6.53;;;37.00;50.60;;;;;;5050578;28;20036;-84
2023/07/27 06:41:25;;;;;;;7.30;6.35;;;37.50;48.80;;;;;;5057239;28;20025;-85
2023/07/27 06:43:52;;;;;;;8.52;6.72;;;36.80;48.60;;;;;;5039115;28;20479;-84
2023/07/27 06:46:19;;;;;;;13.45;9.48;;;35.70;49.40;;;;;;5056065;28;20040;-84
2023/07/27 06:48:48;;;;;;;11.40;7.75;;;35.10;51.80;;;;;;5054687;28;20021;-85
2023/07/27 06:51:14;;;;;;;11.02;7.05;;;34.50;50.90;;;;;;5056882;28;20048;-83
2023/07/27 06:53:40;;;;;;;9.82;7.45;;;33.90;52.10;;;;;;5057775;28;20036;-85
2023/07/27 06:56:06;;;;;;;12.33;9.07;;;33.50;53.10;;;;;;5039029;28;20025;-82
2023/07/27 06:58:32;;;;;;;10.20;7.63;;;34.10;53.30;;;;;;5037796;28;20478;-84
2023/07/27 07:00:58;;;;;;;8.23;6.88;;;35.00;51.50;;;;;;5057201;28;20025;-84
2023/07/27 07:03:24;;;;;;;10.48;7.22;;;35.70;50.70;;;;;;5062023;28;20025;-81
2023/07/27 07:05:53;;;;;;;10.13;6.72;;;36.40;48.10;;;;;;5037654;28;20025;-82
2023/07/27 07:08:19;;;;;;;5.35;4.05;;;;;;;;;;5060405;28;20041;-85
2023/07/27 07:10:46;;;;;;;4.55;4.07;;;;;;;;;;5060856;28;20498;-83
2023/07/27 07:13:12;;;;;;;7.97;4.43;;;37.70;45.70;;;;;;5052779;28;20025;-83
2023/07/27 07:15:38;;;;;;;6.80;4.82;;;39.00;42.30;;;;;;5042597;28;20067;-85
2023/07/27 07:18:04;;;;;;;10.38;5.80;;;38.60;42.70;;;;;;5057237;28;20025;-84
2023/07/27 07:20:30;;;;;;;9.80;5.07;;;39.00;42.80;;;;;;5038125;28;20039;-85
2023/07/27 07:22:56;;;;;;;13.88;6.32;;;;;;;;;;5033828;28;20029;-85
2023/07/27 07:25:22;;;;;;;8.27;5.50;;;39.40;41.90;;;;;;5055451;28;20099;-85
2023/07/27 07:27:48;;;;;;;9.13;6.45;;;;;;;;;;5056101;28;20029;-85
2023/07/27 07:30:14;;;;;;;;;;;;;;;;;;5042938;28;20025;-83
2023/07/27 07:32:40;;;;;;;11.02;6.30;;;;;;;;;;5055696;28;20019;-85
2023/07/27 07:35:06;;;;;;;;;;;;;;;;;;5057760;28;20033;-85
2023/07/27 07:37:32;;;;;;;9.93;6.55;;;;;;;;;;5056988;28;20457;-84
2023/07/27 07:40:04;;;;;;;12.52;6.15;;;;;;;;;;5036545;28;20018;-85
2023/07/27 07:42:32;;;;;;;9.25;6.07;;;;;;;;;;5055920;28;20044;-85
2023/07/27 07:44:58;;;;;;;8.45;5.82;;;;;;;;;;5036094;28;20025;-84
2023/07/27 07:47:24;;;;;;;;;;;;;;;;;;5025993;28;20033;-84
2023/07/27 07:49:50;;;;;;;6.88;6.03;;;;;;;;;;5039285;28;19909;-85
2023/07/27 07:52:24;;;;;;;9.63;5.53;;;;;;;;;;5045178;28;20020;-84
2023/07/27 07:54:53;;;;;;;8.05;5.22;;;;;;;;;;5060664;28;20040;-85
2023/07/27 07:57:20;;;;;;;6.95;5.35;;;;;;;;;;5036029;28;20031;-83
2023/07/27 07:59:46;;;;;;;6.53;5.22;;;;;;;;;;5051897;28;20120;-85
2023/07/27 08:02:12;;;;;;;7.88;6.28;;;;;;;;;;5035063;28;20151;-84
2023/07/27 08:04:39;;;;;;;7.47;5.30;;;;;;;;;;5038038;28;20049;-85
2023/07/27 08:07:05;;;;;;;11.60;6.18;;;;;;;;;;5055665;28;20025;-82
2023/07/27 08:09:31;;;;;;;9.50;5.90;;;;;;;;;;5060685;28;20033;-85
2023/07/27 08:11:57;;;;;;;7.03;4.93;;;;;;;;;;5038505;28;20025;-84
2023/07/27 08:14:23;;;;;;;;;;;;;;;;;;5058984;28;20355;-84
2023/07/27 08:16:50;;;;;;;9.65;6.57;;;;;;;;;;5055326;28;19909;-84
2023/07/27 08:19:16;;;;;;;8.95;5.78;;;;;;;;;;5035798;28;20074;-84
2023/07/27 08:21:42;;;;;;;8.60;5.72;;;36.10;41.50;;;;;;5037700;28;20036;-84
2023/07/27 08:24:08;;;;;;;11.70;6.73;;;35.10;43.90;;;;;;5039155;28;20106;-83
2023/07/27 08:26:34;;;;;;;11.90;6.23;;;34.80;46.00;;;;;;5057181;28;20277;-85
2023/07/27 08:28:59;;;;;;;6.20;4.75;;;36.10;45.00;;;;;;5051244;28;20031;-84
2023/07/27 08:31:26;;;;;;;7.10;5.35;;;;;;;;;;5058343;28;20036;-83
2023/07/27 08:33:52;;;;;;;6.15;4.25;;;37.80;41.70;;;;;;5038409;28;20036;-85
2023/07/27 08:36:18;;;;;;;6.88;5.20;;;39.20;39.60;;;;;;5033489;28;20106;-84
2023/07/27 08:38:44;;;;;;;8.18;5.53;;;;;;;;;;5051060;28;20028;-85
2023/07/27 08:41:10;;;;;;;;;;;;;;;;;;5044467;28;20088;-86
2023/07/27 08:43:36;;;;;;;10.55;5.75;;;;;;;;;;5051877;28;19905;-86
2023/07/27 08:46:05;;;;;;;8.30;5.40;;;;;;;;;;5054465;28;20092;-83
2023/07/27 08:48:33;;;;;;;6.68;4.72;;;42.90;36.70;;;;;;5055969;28;20025;-83
2023/07/27 08:51:00;;;;;;;6.47;4.85;;;43.00;34.30;;;;;;5040805;28;20079;-84
2023/07/27 08:53:26;;;;;;;5.95;4.65;;;42.30;34.90;;;;;;5049913;28;20036;-84
2023/07/27 08:56:02;;;;;;;6.38;4.75;;;42.10;35.50;;;;;;5036560;28;20024;-85
2023/07/27 08:58:28;;;;;;;;;;;42.40;35.40;;;;;;5036096;28;20437;-87
2023/07/27 09:00:56;;;;;;;10.73;5.50;;;42.70;36.60;;;;;;5053991;28;19904;-84
2023/07/27 09:03:22;;;;;;;8.40;4.25;;;42.60;35.80;;;;;;5035707;28;20040;-85
2023/07/27 09:05:59;;;;;;;8.98;5.40;;;42.60;35.80;;;;;;5053552;28;20017;-85
2023/07/27 09:08:29;;;;;;;10.75;5.85;;;42.70;35.90;;;;;;5038520;28;20017;-87
2023/07/27 09:11:07;;;;;;;6.35;4.53;;;42.90;35.90;;;;;;5054366;28;20418;-86
2023/07/27 09:13:34;;;;;;;8.80;4.72;;;42.90;35.60;;;;;;5049294;28;20486;-84
2023/07/27 09:16:02;;;;;;;9.30;5.20;;;42.40;35.70;;;;;;5038635;28;20071;-83
2023/07/27 09:18:33;;;;;;;7.63;4.40;;;42.80;35.70;;;;;;5054855;28;20025;-86
2023/07/27 09:21:08;;;;;;;6.65;3.80;;;43.30;35.80;;;;;;5054883;28;20021;-85
2023/07/27 09:23:35;;;;;;;7.90;4.30;;;;;;;;;;5055320;28;20063;-85
2023/07/27 09:26:01;;;;;;;9.15;4.85;;;;;;;;;;5045066;28;20032;-86
2023/07/27 09:28:28;;;;;;;6.47;4.70;;;;;;;;;;5050395;28;20095;-86
2023/07/27 09:31:01;;;;;;;6.95;4.55;;;;;;;;;;5034969;28;20027;-84
2023/07/27 09:33:27;;;;;;;11.63;4.95;;;;;;;;;;5052577;28;20036;-85
2023/07/27 09:35:54;;;;;;;6.80;4.68;;;;;;;;;;5047473;28;20025;-86
2023/07/27 09:38:25;;;;;;;6.28;4.35;;;;;;;;;;5059532;28;20064;-85
2023/07/27 09:40:51;;;;;;;4.40;3.53;;;;;;;;;;5037334;28;20025;-84
2023/07/27 09:43:17;;;;;;;6.85;4.60;;;44.00;34.90;;;;;;5036831;28;20044;-85
2023/07/27 09:45:43;;;;;;;7.82;5.93;;;40.20;36.90;;;;;;5026643;28;20143;-83
2023/07/27 09:48:09;;;;;;;;;;;40.30;37.40;;;;;;5059123;28;20150;-86
2023/07/27 09:50:36;;;;;;;5.57;4.47;;;40.70;37.60;;;;;;5037831;28;20026;-85
2023/07/27 09:53:02;;;;;;;10.30;5.00;;;41.10;36.00;;;;;;5054123;28;20025;-86
2023/07/27 09:55:32;;;;;;;11.80;5.18;;;41.30;36.50;;;;;;5054546;28;20028;-85
2023/07/27 09:58:01;;;;;;;6.72;4.38;;;41.30;36.60;;;;;;5053966;28;20013;-86
2023/07/27 10:00:27;;;;;;;6.07;4.55;;;41.00;37.20;;;;;;5052855;28;20063;-86
2023/07/27 10:02:53;;;;;;;9.40;4.90;;;40.90;36.60;;;;;;5068083;28;20017;-84
2023/07/27 10:05:19;;;;;;;5.32;4.72;;;40.60;36.90;;;;;;5029514;28;20049;-85
2023/07/27 10:07:46;;;;;;;6.45;4.78;;;39.80;36.60;;;;;;5045398;28;20028;-84
2023/07/27 10:10:33;;;;;;;7.80;4.75;;;38.70;38.40;;;;;;5049572;28;20028;-83
2023/07/27 10:13:10;;;;;;;8.05;4.55;;;38.60;38.80;;;;;;5055927;28;20021;-84
2023/07/27 10:15:42;;;;;;;6.82;5.18;;;38.40;39.30;;;;;;5043860;28;20029;-84
2023/07/27 10:18:11;;;;;;;6.18;4.32;;;38.70;39.20;;;;;;5066969;28;20056;-83
2023/07/27 10:20:37;;;;;;;9.15;5.47;;;38.70;38.00;;;;;;5048928;28;20494;-85
2023/07/27 10:23:12;;;;;;;7.05;5.13;;;38.50;38.70;;;;;;5064338;28;20027;-86
2023/07/27 10:25:54;;;;;;;7.30;5.35;;;38.80;38.70;;;;;;5041877;28;20029;-85
2023/07/27 10:28:37;;;;;;;12.02;8.25;;;39.00;38.60;;;;;;5026919;28;20438;-84
2023/07/27 10:31:23;;;;;;;7.60;5.35;;;;;;;;;;5061348;28;20051;-84
2023/07/27 10:34:07;;;;;;;7.05;5.97;;;38.60;39.40;;;;;;5065879;28;20037;-85
2023/07/27 10:36:58;;;;;;;8.15;5.55;;;36.60;40.10;;;;;;5059997;28;20022;-84
2023/07/27 10:39:30;;;;;;;7.13;5.30;;;35.30;41.90;;;;;;5063874;28;20021;-84
2023/07/27 10:42:04;;;;;;;10.55;5.55;;;34.30;43.10;;;;;;5060365;28;20051;-86
2023/07/27 10:44:42;;;;;;;9.07;6.47;;;33.40;44.00;;;;;;5057001;28;20036;-85
2023/07/27 10:47:10;;;;;;;9.43;7.20;;;32.70;45.30;;;;;;5057391;28;20413;-86
2023/07/27 10:49:40;;;;;;;11.30;6.85;;;;;;;;;;5067190;28;20478;-84
2023/07/27 10:52:08;;;;;;;10.15;6.47;;;32.40;47.10;;;;;;5059022;28;20025;-85
2023/07/27 10:54:39;;;;;;;14.40;6.85;;;32.00;47.70;;;;;;5039508;28;20036;-83
2023/07/27 10:57:06;;;;;;;10.32;6.70;;;;;;;;;;5061306;28;20021;-86
2023/07/27 10:59:36;;;;;;;14.45;7.75;;;;;;;;;;5067854;28;20021;-84
2023/07/27 11:02:03;;;;;;;16.52;7.50;;;32.00;47.90;;;;;;5049258;28;20027;-84
2023/07/27 11:04:33;;;;;;;11.07;6.90;;;31.70;49.00;;;;;;5066587;28;20064;-85
2023/07/27 11:06:59;;;;;;;17.48;11.98;;;31.50;50.30;;;;;;5045337;28;20096;-85
2023/07/27 11:09:27;;;;;;;10.67;7.00;;;31.20;50.20;;;;;;5045170;28;20454;-83
2023/07/27 11:12:00;;;;;;;15.40;7.18;;;31.00;51.10;;;;;;5064295;28;20094;-85
2023/07/27 11:14:27;;;;;;;7.93;6.65;;;30.80;50.90;;;;;;5057338;28;20094;-85
2023/07/27 11:16:53;;;;;;;7.95;6.13;;;;;;;;;;5054631;28;20021;-83
2023/07/27 11:19:21;;;;;;;11.55;6.80;;;30.60;51.50;;;;;;5041211;28;20029;-86
2023/07/27 11:21:49;;;;;;;12.93;6.90;;;;;;;;;;5032106;28;20430;-85
2023/07/27 11:24:16;;;;;;;10.30;6.75;;;30.00;52.40;;;;;;5031998;28;20036;-84
2023/07/27 11:26:42;;;;;;;14.20;6.68;;;29.60;53.40;;;;;;5040296;28;20116;-84
2023/07/27 11:29:09;;;;;;;9.25;6.90;;;29.50;53.10;;;;;;5033426;28;20036;-86
2023/07/27 11:31:36;;;;;;;8.90;6.70;;;29.60;52.60;;;;;;5060341;28;20021;-84
2023/07/27 11:34:03;;;;;;;7.78;6.30;;;29.50;52.80;;;;;;5028866;28;20073;-86
2023/07/27 11:36:33;;;;;;;15.45;7.40;;;29.30;53.00;;;;;;5032293;28;20183;-85
2023/07/27 11:39:04;;;;;;;10.60;7.65;;;29.30;54.20;;;;;;5038703;28;20429;-86
2023/07/27 11:41:31;;;;;;;9.07;6.03;;;29.30;54.00;;;;;;5041689;28;20451;-84
2023/07/27 11:43:59;;;;;;;6.85;6.03;;;29.20;53.30;;;;;;5046459;28;20149;-85
2023/07/27 11:46:26;;;;;;;10.25;6.78;;;28.80;53.20;;;;;;5056244;28;20070;-85
2023/07/27 11:48:53;;;;;;;9.27;5.85;;;28.50;54.70;;;;;;5056003;28;20020;-87
2023/07/27 11:51:19;;;;;;;8.90;6.20;;;28.50;54.80;;;;;;5059571;28;20028;-85
2023/07/27 11:53:46;;;;;;;17.83;7.70;;;28.60;55.10;;;;;;5032953;28;20503;-85
2023/07/27 11:56:13;;;;;;;12.27;6.90;;;28.90;54.70;;;;;;5046362;28;20049;-86
2023/07/27 11:58:45;;;;;;;9.93;7.43;;;28.90;54.50;;;;;;5036596;28;20032;-84
2023/07/27 12:01:11;;;;;;;7.97;5.93;;;28.90;55.30;;;;;;5036631;28;20390;-85
2023/07/27 12:03:40;;;;;;;13.00;7.43;;;28.60;54.30;;;;;;5055237;28;20096;-85
2023/07/27 12:06:07;;;;;;;7.80;6.30;;;28.40;55.20;;;;;;5036752;28;20075;-83
2023/07/27 12:08:37;;;;;;;12.00;7.35;;;28.10;55.60;;;;;;5037068;28;20122;-85
2023/07/27 12:11:03;;;;;;;9.23;7.53;;;27.80;56.70;;;;;;5039562;28;20099;-85
2023/07/27 12:13:32;;;;;;;12.93;7.40;;;27.60;56.90;;;;;;5038189;28;20257;-87
2023/07/27 12:16:05;;;;;;;9.23;6.65;;;27.60;57.20;;;;;;5040181;28;20363;-85
2023/07/27 12:18:31;;;;;;;13.55;7.03;;;27.60;57.20;;;;;;5062249;28;20017;-85
2023/07/27 12:21:02;;;;;;;10.88;6.72;;;27.50;58.00;;;;;;5060341;28;20029;-86
2023/07/27 12:23:32;;;;;;;11.57;8.30;;;27.40;58.80;;;;;;5040979;28;20104;-85
2023/07/27 12:25:57;;;;;;;13.43;7.78;;;27.40;59.80;;;;;;5041167;28;20032;-84
2023/07/27 12:28:23;;;;;;;13.50;9.93;;;27.40;60.00;;;;;;5043538;28;20087;-84
2023/07/27 12:30:50;;;;;;;12.18;8.00;;;27.30;59.90;;;;;;5038394;28;20036;-85
2023/07/27 12:33:16;;;;;;;14.63;8.67;;;27.10;60.70;;;;;;5058701;28;20029;-83
2023/07/27 12:35:42;;;;;;;16.98;9.38;;;27.10;61.10;;;;;;5041808;28;20059;-85
2023/07/27 12:38:08;;;;;;;18.70;8.68;;;27.10;61.90;;;;;;5061332;28;20021;-84
2023/07/27 12:40:37;;;;;;;15.50;8.20;;;27.10;62.30;;;;;;5040346;28;20028;-84
2023/07/27 12:43:04;;;;;;;13.07;7.28;;;27.20;62.80;;;;;;5037155;28;20025;-86
2023/07/27 12:45:30;;;;;;;17.70;8.80;;;27.30;62.10;;;;;;5057353;28;20486;-85
2023/07/27 12:47:56;;;;;;;12.35;7.90;;;27.40;62.50;;;;;;5037563;28;20039;-85
2023/07/27 12:50:22;;;;;;;13.20;7.47;;;27.50;62.50;;;;;;5036711;28;20478;-85
2023/07/27 12:52:49;;;;;;;13.88;8.10;;;27.60;62.20;;;;;;5054984;28;20025;-84
2023/07/27 12:55:16;;;;;;;12.68;7.53;;;27.70;61.80;;;;;;5057561;28;20025;-85
2023/07/27 12:57:42;;;;;;;;;;;27.70;61.80;;;;;;5061510;28;20024;-83